createdAt,value
2022-09-28T00:01:23.845Z,98843.07
2022-09-28T00:03:54.627Z,98842.54
2022-09-28T00:06:25.403Z,98837.95
2022-09-28T00:08:53.815Z,98835.17
2022-09-28T00:11:23.915Z,98834.81
2022-09-28T00:13:56.743Z,98838.16
2022-09-28T00:16:27.881Z,98842.23
2022-09-28T00:18:56.137Z,98844.92
2022-09-28T00:21:26.920Z,98852.38
2022-09-28T00:24:13.443Z,98853.88
2022-09-28T00:26:46.194Z,98859.81
2022-09-28T00:29:19.166Z,98861.62
2022-09-28T00:31:47.746Z,98868.88
2022-09-28T00:34:16.264Z,98871.20
2022-09-28T00:36:46.357Z,98864.36
2022-09-28T00:39:15.605Z,98859.69
2022-09-28T00:41:45.232Z,98853.36
2022-09-28T00:44:51.706Z,98846.86
2022-09-28T00:47:50.086Z,98853.82
2022-09-28T00:50:29.173Z,98849.40
2022-09-28T00:53:04.204Z,98840.70
2022-09-28T00:55:54.407Z,98844.29
2022-09-28T00:58:30.366Z,98843.61
2022-09-28T01:00:59.704Z,98844.10
2022-09-28T01:03:28.714Z,98837.09
2022-09-28T01:06:00.252Z,98834.11
2022-09-28T01:08:30.704Z,98835.67
2022-09-28T01:11:00.139Z,98841.80
2022-09-28T01:13:32.316Z,98843.77
2022-09-28T01:16:34.274Z,98856.81
2022-09-28T01:19:28.904Z,98848.42
2022-09-28T01:22:20.119Z,98857.27
2022-09-28T01:25:13.174Z,98869.27
2022-09-28T01:28:03.723Z,98861.54
2022-09-28T01:30:35.889Z,98862.99
2022-09-28T01:33:07.344Z,98864.14
2022-09-28T01:35:53.008Z,98858.06
2022-09-28T01:38:33.889Z,98855.92
2022-09-28T01:41:05.119Z,98870.05
2022-09-28T01:43:39.504Z,98873.41
2022-09-28T01:46:14.743Z,98868.02
2022-09-28T01:48:56.858Z,98871.04
2022-09-28T01:51:32.249Z,98869.44
2022-09-28T01:54:06.027Z,98874.48
2022-09-28T01:56:40.652Z,98882.84
2022-09-28T01:59:15.655Z,98876.68
2022-09-28T02:02:13.384Z,98882.20
2022-09-28T02:04:51.382Z,98883.15
2022-09-28T02:07:31.984Z,98885.04
2022-09-28T02:10:42.480Z,98894.48
2022-09-28T02:13:47.118Z,98908.86
2022-09-28T02:16:19.246Z,98920.81
2022-09-28T02:18:47.937Z,98926.21
2022-09-28T02:21:39.923Z,98928.26
2022-09-28T02:24:12.043Z,98930.59
2022-09-28T02:26:44.675Z,98942.96
2022-09-28T02:29:13.294Z,98946.11
2022-09-28T02:31:41.530Z,98948.16
2022-09-28T02:34:09.950Z,98959.06
2022-09-28T02:36:38.383Z,98960.44
2022-09-28T02:39:14.265Z,98957.60
2022-09-28T02:41:52.756Z,98956.08
2022-09-28T02:44:52.967Z,98962.92
2022-09-28T02:47:39.785Z,98966.65
2022-09-28T02:50:14.940Z,98969.15
2022-09-28T02:52:58.202Z,98967.27
2022-09-28T02:55:35.437Z,98963.25
2022-09-28T02:58:19.099Z,98962.76
2022-09-28T03:01:02.756Z,98962.04
2022-09-28T03:03:33.716Z,98959.17
2022-09-28T03:06:16.152Z,98961.60
2022-09-28T03:09:09.689Z,98962.11
2022-09-28T03:11:52.962Z,98965.09
2022-09-28T03:14:21.798Z,98961.80
2022-09-28T03:16:53.503Z,98959.89
2022-09-28T03:19:26.902Z,98961.34
2022-09-28T03:21:55.838Z,98963.61
2022-09-28T03:24:23.730Z,98966.59
2022-09-28T03:26:52.426Z,98977.21
2022-09-28T03:29:20.720Z,98987.79
2022-09-28T03:31:53.076Z,98989.07
2022-09-28T03:34:21.168Z,98985.64
2022-09-28T03:36:49.643Z,98984.55
2022-09-28T03:39:18.000Z,98987.12
2022-09-28T03:41:46.370Z,98997.02
2022-09-28T03:44:14.704Z,98999.48
2022-09-28T03:46:43.438Z,98997.53
2022-09-28T03:49:12.137Z,99002.64
2022-09-28T03:51:40.784Z,99007.59
2022-09-28T03:54:09.841Z,99009.85
2022-09-28T03:56:38.144Z,99002.03
2022-09-28T03:59:06.166Z,99003.38
2022-09-28T04:01:34.552Z,99010.11
2022-09-28T04:04:02.777Z,99007.41
2022-09-28T04:06:31.798Z,99004.75
2022-09-28T04:08:59.972Z,99011.00
2022-09-28T04:11:34.898Z,99015.36
2022-09-28T04:14:11.532Z,99012.89
2022-09-28T04:16:39.720Z,99018.67
2022-09-28T04:19:15.753Z,99026.04
2022-09-28T04:21:52.932Z,99044.50
2022-09-28T04:24:21.448Z,99048.09
2022-09-28T04:26:49.543Z,99045.04
2022-09-28T04:29:19.215Z,99040.75
2022-09-28T04:31:55.798Z,99039.61
2022-09-28T04:34:50.002Z,99032.19
2022-09-28T04:37:17.902Z,99033.08
2022-09-28T04:39:48.626Z,99036.88
2022-09-28T04:42:19.602Z,99039.19
2022-09-28T04:44:50.023Z,99036.61
2022-09-28T04:47:18.019Z,99034.06
2022-09-28T04:50:04.741Z,99030.83
2022-09-28T04:52:37.873Z,99027.92
2022-09-28T04:55:06.968Z,99035.27
2022-09-28T04:57:35.826Z,99036.84
2022-09-28T05:00:05.490Z,99038.08
2022-09-28T05:02:35.943Z,99038.36
2022-09-28T05:05:22.740Z,99040.29
2022-09-28T05:08:18.373Z,99045.23
2022-09-28T05:10:46.740Z,99052.45
2022-09-28T05:13:14.867Z,99059.17
2022-09-28T05:15:43.281Z,99060.55
2022-09-28T05:18:11.432Z,99070.45
2022-09-28T05:20:54.292Z,99079.92
2022-09-28T05:23:22.732Z,99085.73
2022-09-28T05:25:55.159Z,99084.02
2022-09-28T05:28:31.106Z,99085.40
2022-09-28T05:31:19.393Z,99085.30
2022-09-28T05:34:05.918Z,99080.89
2022-09-28T05:36:35.688Z,99084.04
2022-09-28T05:39:04.375Z,99084.04
2022-09-28T05:41:32.892Z,99090.39
2022-09-28T05:44:01.972Z,99089.85
2022-09-28T05:46:31.498Z,99093.30
2022-09-28T05:49:02.831Z,99100.62
2022-09-28T05:51:31.233Z,99099.37
2022-09-28T05:54:04.642Z,99099.73
2022-09-28T05:56:34.909Z,99095.48
2022-09-28T05:59:06.494Z,99089.67
2022-09-28T06:01:35.463Z,99080.11
2022-09-28T06:04:04.479Z,99080.14
2022-09-28T06:06:32.842Z,99078.04
2022-09-28T06:09:00.847Z,99077.39
2022-09-28T06:11:35.079Z,99081.32
2022-09-28T06:14:31.791Z,99089.89
2022-09-28T06:16:59.980Z,99090.87
2022-09-28T06:19:27.967Z,99092.38
2022-09-28T06:22:05.238Z,99096.57
2022-09-28T06:24:36.912Z,99096.77
2022-09-28T06:27:05.256Z,99110.83
2022-09-28T06:29:33.388Z,99114.10
2022-09-28T06:32:01.880Z,99114.38
2022-09-28T06:34:30.583Z,99113.13
2022-09-28T06:36:59.778Z,99107.88
2022-09-28T06:39:29.760Z,99105.34
2022-09-28T06:41:59.190Z,99106.79
2022-09-28T06:44:34.910Z,99110.80
2022-09-28T06:47:21.841Z,99110.10
2022-09-28T06:50:19.373Z,99111.59
2022-09-28T06:52:57.183Z,99110.79
2022-09-28T06:55:49.474Z,99111.59
2022-09-28T06:58:21.729Z,99117.54
2022-09-28T07:00:52.096Z,99121.80
2022-09-28T07:03:23.030Z,99125.30
2022-09-28T07:06:05.074Z,99131.63
2022-09-28T07:08:39.187Z,99128.75
2022-09-28T07:11:32.714Z,99126.66
2022-09-28T07:14:22.946Z,99125.13
2022-09-28T07:17:12.684Z,99132.61
2022-09-28T07:19:43.052Z,99136.75
2022-09-28T07:22:18.757Z,99138.41
2022-09-28T07:24:48.621Z,99142.20
2022-09-28T07:27:39.654Z,99147.52
2022-09-28T07:30:16.905Z,99149.78
2022-09-28T07:33:03.548Z,99149.38
2022-09-28T07:35:52.799Z,99151.70
2022-09-28T07:38:22.738Z,99152.59
2022-09-28T07:41:09.473Z,99156.02
2022-09-28T07:43:40.037Z,99152.34
2022-09-28T07:46:12.266Z,99155.79
2022-09-28T07:48:45.931Z,99162.85
2022-09-28T07:51:22.792Z,99157.08
2022-09-28T07:54:08.952Z,99162.39
2022-09-28T07:57:00.158Z,99160.25
2022-09-28T07:59:35.124Z,99168.33
2022-09-28T08:02:06.258Z,99174.09
2022-09-28T08:04:34.191Z,99175.89
2022-09-28T08:07:03.198Z,99184.70
2022-09-28T08:09:32.255Z,99192.22
2022-09-28T08:12:21.142Z,99189.10
2022-09-28T08:15:10.670Z,99187.70
2022-09-28T08:17:53.436Z,99176.69
2022-09-28T08:20:41.531Z,99175.87
2022-09-28T08:23:11.297Z,99178.25
2022-09-28T08:25:47.236Z,99174.81
2022-09-28T08:28:18.232Z,99170.70
2022-09-28T08:30:51.926Z,99170.72
2022-09-28T08:33:21.672Z,99171.53
2022-09-28T08:35:59.673Z,99167.96
2022-09-28T08:38:51.487Z,99167.95
2022-09-28T08:42:00.986Z,99169.30
2022-09-28T08:44:45.379Z,99168.90
2022-09-28T08:47:45.005Z,99169.73
2022-09-28T08:50:46.478Z,99167.27
2022-09-28T08:53:28.982Z,99169.09
2022-09-28T08:56:47.826Z,99172.48
2022-09-28T08:59:37.312Z,99168.30
2022-09-28T09:02:26.058Z,99163.59
2022-09-28T09:05:15.070Z,99161.23
2022-09-28T09:08:32.405Z,99154.17
2022-09-28T09:11:30.047Z,99156.98
2022-09-28T09:14:19.952Z,99161.52
2022-09-28T09:17:06.422Z,99155.10
2022-09-28T09:20:05.890Z,99150.34
2022-09-28T09:23:00.181Z,99148.66
2022-09-28T09:25:47.768Z,99148.02
2022-09-28T09:29:00.766Z,99139.05
2022-09-28T09:31:54.502Z,99135.28
2022-09-28T09:34:44.323Z,99135.27
2022-09-28T09:38:07.542Z,99138.67
2022-09-28T09:41:03.824Z,99134.47
2022-09-28T09:43:58.883Z,99135.30
2022-09-28T09:47:19.750Z,99142.52
2022-09-28T09:50:05.480Z,99149.06
2022-09-28T09:52:52.565Z,99149.83
2022-09-28T09:55:34.779Z,99136.92
2022-09-28T09:58:34.521Z,99131.48
2022-09-28T10:01:32.491Z,99132.02
2022-09-28T10:04:41.062Z,99130.66
2022-09-28T10:07:32.711Z,99131.10
2022-09-28T10:10:02.889Z,99132.23
2022-09-28T10:12:45.263Z,99136.58
2022-09-28T10:15:18.160Z,99131.27
2022-09-28T10:17:57.151Z,99123.60
2022-09-28T10:20:45.143Z,99123.98
2022-09-28T10:23:36.217Z,99117.44
2022-09-28T10:26:10.452Z,99114.73
2022-09-28T10:29:03.341Z,99114.79
2022-09-28T10:31:42.338Z,99115.44
2022-09-28T10:34:31.223Z,99115.11
2022-09-28T10:37:14.121Z,99117.55
2022-09-28T10:40:05.659Z,99125.23
2022-09-28T10:42:36.444Z,99126.52
2022-09-28T10:45:23.652Z,99121.65
2022-09-28T10:47:52.225Z,99121.91
2022-09-28T10:50:28.033Z,99117.99
2022-09-28T10:53:32.322Z,99113.40
2022-09-28T10:56:26.919Z,99112.60
2022-09-28T10:59:00.391Z,99111.69
2022-09-28T11:01:43.415Z,99110.58
2022-09-28T11:04:22.125Z,99113.20
2022-09-28T11:06:51.863Z,99113.02
2022-09-28T11:09:30.836Z,99112.80
2022-09-28T11:12:06.268Z,99108.59
2022-09-28T11:14:42.607Z,99100.77
2022-09-28T11:17:26.830Z,99101.92
2022-09-28T11:19:57.446Z,99103.51
2022-09-28T11:22:42.030Z,99103.11
2022-09-28T11:25:16.848Z,99106.01
2022-09-28T11:27:50.880Z,99105.09
2022-09-28T11:30:34.041Z,99109.38
2022-09-28T11:33:43.146Z,99103.23
2022-09-28T11:36:52.036Z,99103.52
2022-09-28T11:39:52.547Z,99103.48
2022-09-28T11:42:34.154Z,99105.14
2022-09-28T11:45:29.957Z,99102.49
2022-09-28T11:48:11.168Z,99098.60
2022-09-28T11:50:50.519Z,99095.97
2022-09-28T11:53:55.836Z,99097.25
2022-09-28T11:56:32.739Z,99098.54
2022-09-28T11:59:10.666Z,99097.60
2022-09-28T12:01:55.752Z,99096.45
2022-09-28T12:04:43.879Z,99096.19
2022-09-28T12:07:23.260Z,99089.94
2022-09-28T12:09:58.188Z,99089.96
2022-09-28T12:12:40.536Z,99087.17
2022-09-28T12:15:25.796Z,99086.63
2022-09-28T12:18:04.005Z,99083.38
2022-09-28T12:20:38.379Z,99080.88
2022-09-28T12:23:13.342Z,99086.78
2022-09-28T12:25:47.305Z,99085.02
2022-09-28T12:28:34.424Z,99081.24
2022-09-28T12:31:14.633Z,99073.44
2022-09-28T12:33:47.993Z,99074.80
2022-09-28T12:36:40.454Z,99070.21
2022-09-28T12:39:58.475Z,99071.91
2022-09-28T12:42:53.047Z,99071.30
2022-09-28T12:46:06.737Z,99075.52
2022-09-28T12:48:42.368Z,99075.90
2022-09-28T12:51:38.753Z,99075.66
2022-09-28T12:54:15.884Z,99071.28
2022-09-28T12:57:26.876Z,99072.23
2022-09-28T13:00:11.929Z,99066.11
2022-09-28T13:02:46.491Z,99067.56
2022-09-28T13:05:42.490Z,99070.73
2022-09-28T13:08:40.874Z,99077.28
2022-09-28T13:11:22.455Z,99077.30
2022-09-28T13:14:10.239Z,99075.54
2022-09-28T13:16:47.830Z,99078.06
2022-09-28T13:19:34.507Z,99076.84
2022-09-28T13:22:26.104Z,99072.89
2022-09-28T13:24:58.218Z,99067.44
2022-09-28T13:27:38.354Z,99061.45
2022-09-28T13:30:08.188Z,99056.69
2022-09-28T13:32:38.925Z,99054.22
2022-09-28T13:35:07.236Z,99051.27
2022-09-28T13:37:36.331Z,99049.95
2022-09-28T13:40:06.488Z,99051.87
2022-09-28T13:42:46.296Z,99047.51
2022-09-28T13:45:17.623Z,99047.39
2022-09-28T13:47:54.643Z,99045.70
2022-09-28T13:50:59.792Z,99043.34
2022-09-28T13:53:58.877Z,99041.77
2022-09-28T13:56:51.822Z,99037.31
2022-09-28T13:59:27.505Z,99035.84
2022-09-28T14:02:12.883Z,99041.55
2022-09-28T14:05:27.048Z,99045.73
2022-09-28T14:08:13.460Z,99040.41
2022-09-28T14:10:52.232Z,99038.15
2022-09-28T14:13:41.701Z,99035.30
2022-09-28T14:16:32.266Z,99031.11
2022-09-28T14:19:33.003Z,99032.88
2022-09-28T14:22:21.313Z,99035.47
2022-09-28T14:24:55.602Z,99035.44
2022-09-28T14:27:40.745Z,99034.72
2022-09-28T14:30:11.756Z,99028.90
2022-09-28T14:32:43.186Z,99029.34
2022-09-28T14:35:23.963Z,99024.17
2022-09-28T14:38:18.021Z,99022.34
2022-09-28T14:41:12.735Z,99020.09
2022-09-28T14:43:44.490Z,99018.25
2022-09-28T14:46:15.782Z,99013.99
2022-09-28T14:48:55.402Z,99010.67
2022-09-28T14:51:35.575Z,99007.50
2022-09-28T14:54:36.862Z,99002.98
2022-09-28T14:57:12.882Z,99005.63
2022-09-28T14:59:43.607Z,99009.06
2022-09-28T15:02:11.734Z,99008.89
2022-09-28T15:05:16.202Z,99009.64
2022-09-28T15:07:46.170Z,99010.87
2022-09-28T15:10:32.047Z,99009.85
2022-09-28T15:13:06.413Z,99002.17
2022-09-28T15:15:40.207Z,98997.39
2022-09-28T15:18:20.468Z,98995.58
2022-09-28T15:20:49.451Z,98998.77
2022-09-28T15:23:26.887Z,99007.61
2022-09-28T15:25:55.467Z,99001.73
2022-09-28T15:28:24.913Z,98999.21
2022-09-28T15:31:00.168Z,99003.66
2022-09-28T15:33:51.866Z,98999.02
2022-09-28T15:36:24.984Z,98991.25
2022-09-28T15:39:22.482Z,98989.44
2022-09-28T15:41:51.654Z,98990.92
2022-09-28T15:44:29.750Z,98987.79
2022-09-28T15:47:38.780Z,98992.28
2022-09-28T15:50:26.776Z,98990.19
2022-09-28T15:52:59.133Z,98987.02
2022-09-28T15:55:33.522Z,98988.23
2022-09-28T15:58:19.818Z,98990.58
2022-09-28T16:00:50.327Z,98993.90
2022-09-28T16:03:27.993Z,98994.00
2022-09-28T16:05:58.948Z,98996.30
2022-09-28T16:08:35.535Z,98991.48
2022-09-28T16:11:36.902Z,98986.52
2022-09-28T16:14:16.684Z,98984.21
2022-09-28T16:16:50.933Z,98986.50
2022-09-28T16:19:24.629Z,98988.17
2022-09-28T16:21:56.085Z,98992.04
2022-09-28T16:24:31.492Z,98992.88
2022-09-28T16:27:09.094Z,98996.05
2022-09-28T16:29:40.520Z,98997.02
2022-09-28T16:32:38.659Z,99001.43
2022-09-28T16:35:10.848Z,99010.80
2022-09-28T16:37:42.981Z,99010.98
2022-09-28T16:40:12.921Z,99016.00
2022-09-28T16:42:48.704Z,99020.48
2022-09-28T16:45:21.796Z,99025.55
2022-09-28T16:47:53.820Z,99023.16
2022-09-28T16:50:22.838Z,99024.33
2022-09-28T16:53:37.309Z,99032.23
2022-09-28T16:56:06.474Z,99030.14
2022-09-28T16:58:36.703Z,99033.23
2022-09-28T17:01:10.094Z,99033.08
2022-09-28T17:03:38.105Z,99036.21
2022-09-28T17:06:06.796Z,99037.13
2022-09-28T17:08:35.941Z,99036.38
2022-09-28T17:11:24.097Z,99038.17
2022-09-28T17:13:56.818Z,99041.73
2022-09-28T17:19:23.770Z,99041.16
2022-09-28T17:21:52.978Z,99039.41
2022-09-28T17:24:21.636Z,99039.02
2022-09-28T17:26:51.776Z,99037.05
2022-09-28T17:29:20.197Z,99038.17
2022-09-28T17:31:48.857Z,99039.83
2022-09-28T17:34:17.435Z,99039.84
2022-09-28T17:36:45.778Z,99042.38
2022-09-28T17:39:16.227Z,99047.04
2022-09-28T17:41:45.267Z,99047.45
2022-09-28T17:44:16.536Z,99051.09
2022-09-28T17:46:48.748Z,99051.55
2022-09-28T17:49:17.711Z,99053.00
2022-09-28T17:51:45.829Z,99055.05
2022-09-28T17:54:17.020Z,99053.52
2022-09-28T17:56:46.403Z,99052.98
2022-09-28T17:59:17.417Z,99051.42
2022-09-28T18:01:45.569Z,99051.09
2022-09-28T18:04:39.740Z,99050.77
2022-09-28T18:07:04.301Z,99049.61
2022-09-28T18:09:32.307Z,99052.73
2022-09-28T18:12:04.529Z,99053.77
2022-09-28T18:14:35.814Z,99059.11
2022-09-28T18:17:03.947Z,99061.46
2022-09-28T18:19:32.706Z,99059.17
2022-09-28T18:22:01.778Z,99058.73
2022-09-28T18:24:32.688Z,99057.98
2022-09-28T18:27:00.740Z,99060.95
2022-09-28T18:29:32.901Z,99060.33
2022-09-28T18:32:02.504Z,99059.92
2022-09-28T18:34:30.468Z,99059.91
2022-09-28T18:36:58.463Z,99059.03
2022-09-28T18:39:26.949Z,99056.10
2022-09-28T18:41:54.977Z,99053.63
2022-09-28T18:44:23.334Z,99057.05
2022-09-28T18:46:51.563Z,99057.55
2022-09-28T18:49:20.246Z,99059.30
2022-09-28T18:51:48.683Z,99058.80
2022-09-28T18:54:17.294Z,99055.85
2022-09-28T18:56:45.419Z,99054.00
2022-09-28T18:59:14.768Z,99062.29
2022-09-28T19:01:43.421Z,99063.56
2022-09-28T19:04:12.885Z,99059.95
2022-09-28T19:06:42.915Z,99062.06
2022-09-28T19:09:11.711Z,99060.34
2022-09-28T19:11:39.648Z,99061.77
2022-09-28T19:14:11.156Z,99061.45
2022-09-28T19:16:39.204Z,99055.36
2022-09-28T19:19:07.548Z,99059.87
2022-09-28T19:21:35.756Z,99064.34
2022-09-28T19:24:04.918Z,99061.63
2022-09-28T19:26:34.445Z,99062.98
2022-09-28T19:29:03.124Z,99061.93
2022-09-28T19:31:32.923Z,99059.52
2022-09-28T19:34:01.522Z,99058.67
2022-09-28T19:36:30.274Z,99058.44
2022-09-28T19:39:03.590Z,99058.58
2022-09-28T19:41:53.197Z,99061.82
2022-09-28T19:44:26.308Z,99057.75
2022-09-28T19:47:10.320Z,99052.67
2022-09-28T19:49:41.048Z,99048.20
2022-09-28T19:52:16.547Z,99044.96
2022-09-28T19:55:00.097Z,99033.98
2022-09-28T19:57:31.354Z,99034.34
2022-09-28T20:00:03.509Z,99032.17
2022-09-28T20:02:36.417Z,99028.95
2022-09-28T20:05:05.003Z,99031.13
2022-09-28T20:07:34.848Z,99039.11
2022-09-28T20:10:02.733Z,99036.54
2022-09-28T20:12:30.803Z,99039.32
2022-09-28T20:14:59.533Z,99045.27
2022-09-28T20:17:27.771Z,99048.77
2022-09-28T20:19:55.822Z,99050.46
2022-09-28T20:22:23.746Z,99050.89
2022-09-28T20:24:51.789Z,99050.77
2022-09-28T20:27:23.161Z,99049.11
2022-09-28T20:29:54.637Z,99047.98
2022-09-28T20:32:22.904Z,99045.04
2022-09-28T20:34:50.913Z,99040.98
2022-09-28T20:37:19.386Z,99041.08
2022-09-28T20:39:47.690Z,99045.20
2022-09-28T20:42:15.767Z,99048.34
2022-09-28T20:44:43.896Z,99044.65
2022-09-28T20:47:12.279Z,99049.56
2022-09-28T20:49:40.469Z,99050.56
2022-09-28T20:52:08.565Z,99051.81
2022-09-28T20:54:38.092Z,99053.61
2022-09-28T20:57:17.427Z,99054.19
2022-09-28T20:59:50.997Z,99049.80
2022-09-28T21:02:22.901Z,99049.78
2022-09-28T21:04:51.544Z,99047.89
2022-09-28T21:07:19.832Z,99053.73
2022-09-28T21:09:48.594Z,99049.75
2022-09-28T21:12:17.415Z,99045.55
2022-09-28T21:14:45.441Z,99044.02
2022-09-28T21:17:13.514Z,99045.45
2022-09-28T21:19:41.778Z,99047.46
2022-09-28T21:22:09.660Z,99054.91
2022-09-28T21:24:37.749Z,99055.58
2022-09-28T21:27:06.047Z,99057.67
2022-09-28T21:29:34.050Z,99055.73
2022-09-28T21:32:02.391Z,99056.88
2022-09-28T21:34:30.358Z,99061.55
2022-09-28T21:36:58.411Z,99058.27
2022-09-28T21:39:26.956Z,99055.69
2022-09-28T21:41:55.626Z,99057.48
2022-09-28T21:44:23.671Z,99062.48
2022-09-28T21:46:51.828Z,99060.77
2022-09-28T21:49:19.619Z,99060.27
2022-09-28T21:51:47.553Z,99062.31
2022-09-28T21:54:15.674Z,99058.65
2022-09-28T21:56:43.734Z,99056.86
2022-09-28T21:59:11.677Z,99057.45
2022-09-28T22:01:42.331Z,99057.08
2022-09-28T22:04:10.608Z,99060.58
2022-09-28T22:06:39.784Z,99057.62
2022-09-28T22:09:08.280Z,99054.68
2022-09-28T22:11:37.064Z,99053.61
2022-09-28T22:14:05.135Z,99052.92
2022-09-28T22:16:33.098Z,99053.83
2022-09-28T22:19:01.185Z,99054.79
2022-09-28T22:21:32.852Z,99051.90
2022-09-28T22:24:03.961Z,99047.37
2022-09-28T22:26:34.302Z,99051.64
2022-09-28T22:29:06.939Z,99052.79
2022-09-28T22:31:37.460Z,99048.98
2022-09-28T22:34:06.202Z,99041.41
2022-09-28T22:36:35.433Z,99041.46
2022-09-28T22:39:03.922Z,99042.04
2022-09-28T22:41:32.723Z,99045.14
2022-09-28T22:44:00.915Z,99045.11
2022-09-28T22:46:31.830Z,99042.17
2022-09-28T22:49:00.927Z,99043.98
2022-09-28T22:51:30.189Z,99044.11
2022-09-28T22:53:58.290Z,99034.56
2022-09-28T22:56:26.455Z,99042.08
2022-09-28T22:58:54.708Z,99039.25
2022-09-28T23:01:28.705Z,99039.52
2022-09-28T23:03:58.279Z,99040.15
2022-09-28T23:06:29.251Z,99035.64
2022-09-28T23:08:57.570Z,99031.64
2022-09-28T23:11:25.481Z,99031.14
2022-09-28T23:13:55.726Z,99032.06
2022-09-28T23:16:25.720Z,99029.16
2022-09-28T23:18:55.490Z,99026.30
2022-09-28T23:21:25.869Z,99027.84
2022-09-28T23:23:56.985Z,99024.95
2022-09-28T23:26:28.329Z,99017.84
2022-09-28T23:28:56.965Z,99016.87
2022-09-28T23:31:27.938Z,99020.23
2022-09-28T23:34:01.923Z,99015.15
2022-09-28T23:36:30.194Z,99019.79
2022-09-28T23:38:58.645Z,99016.30
2022-09-28T23:41:26.700Z,99016.16
2022-09-28T23:43:54.970Z,99015.48
2022-09-28T23:46:23.040Z,99016.05
2022-09-28T23:48:51.196Z,99018.20
2022-09-28T23:51:19.272Z,99015.45
2022-09-28T23:53:47.161Z,99016.36
2022-09-28T23:56:15.182Z,99016.50
2022-09-28T23:58:43.064Z,99019.98
